createdAt,value
2022-12-23T00:00:23.330Z,13.35
2022-12-23T00:01:26.451Z,13.43
2022-12-23T00:02:30.801Z,14.35
2022-12-23T00:03:33.420Z,13.80
2022-12-23T00:04:36.579Z,14.43
2022-12-23T00:05:39.026Z,13.77
2022-12-23T00:06:41.791Z,14.93
2022-12-23T00:07:44.883Z,14.52
2022-12-23T00:08:47.800Z,14.32
2022-12-23T00:09:49.722Z,12.55
2022-12-23T00:10:53.824Z,13.63
2022-12-23T00:12:13.936Z,13.43
2022-12-23T00:13:35.970Z,13.85
2022-12-23T00:14:56.141Z,13.52
2022-12-23T00:16:03.349Z,13.45
2022-12-23T00:17:17.569Z,14.57
2022-12-23T00:18:24.695Z,14.45
2022-12-23T00:19:26.524Z,15.52
2022-12-23T00:20:29.328Z,13.68
2022-12-23T00:21:32.348Z,13.40
2022-12-23T00:22:49.182Z,15.05
2022-12-23T00:23:52.271Z,14.32
2022-12-23T00:24:54.237Z,14.43
2022-12-23T00:25:57.006Z,13.50
2022-12-23T00:26:58.921Z,13.93
2022-12-23T00:28:02.223Z,14.82
2022-12-23T00:29:06.392Z,14.27
2022-12-23T00:30:10.368Z,16.90
2022-12-23T00:31:14.305Z,15.43
2022-12-23T00:32:16.436Z,14.57
2022-12-23T00:33:21.076Z,13.70
2022-12-23T00:34:23.049Z,13.90
2022-12-23T00:35:25.860Z,14.40
2022-12-23T00:36:30.512Z,13.43
2022-12-23T00:37:32.633Z,13.77
2022-12-23T00:38:53.208Z,13.55
2022-12-23T00:40:13.457Z,15.02
2022-12-23T00:41:37.123Z,14.30
2022-12-23T00:42:59.649Z,13.55
2022-12-23T00:44:03.359Z,14.85
2022-12-23T00:45:16.361Z,13.95
2022-12-23T00:46:18.390Z,13.90
2022-12-23T00:47:38.977Z,14.02
2022-12-23T00:48:59.064Z,14.57
2022-12-23T00:50:01.918Z,14.10
2022-12-23T00:51:03.881Z,14.43
2022-12-23T00:52:08.438Z,14.02
2022-12-23T00:53:10.676Z,14.40
2022-12-23T00:54:13.446Z,14.50
2022-12-23T00:55:15.524Z,14.63
2022-12-23T00:56:18.622Z,15.18
2022-12-23T00:57:20.514Z,15.43
2022-12-23T00:58:23.339Z,14.68
2022-12-23T00:59:25.576Z,21.00
2022-12-23T01:00:43.866Z,15.70
2022-12-23T01:02:04.253Z,14.07
2022-12-23T01:03:24.927Z,16.20
2022-12-23T01:04:45.735Z,16.48
2022-12-23T01:05:48.939Z,16.98
2022-12-23T01:06:50.759Z,18.17
2022-12-23T01:07:53.503Z,15.00
2022-12-23T01:08:55.621Z,14.50
2022-12-23T01:09:58.510Z,15.40
2022-12-23T01:11:02.766Z,14.35
2022-12-23T01:12:06.350Z,16.83
2022-12-23T01:13:08.790Z,15.38
2022-12-23T01:14:12.692Z,13.45
2022-12-23T01:15:14.861Z,14.23
2022-12-23T01:16:19.019Z,14.02
2022-12-23T01:17:20.911Z,14.93
2022-12-23T01:18:23.827Z,16.23
2022-12-23T01:19:26.648Z,16.33
2022-12-23T01:20:28.657Z,17.83
2022-12-23T01:21:31.620Z,16.10
2022-12-23T01:22:33.533Z,16.00
2022-12-23T01:23:36.980Z,16.92
2022-12-23T01:24:38.980Z,15.00
2022-12-23T01:25:41.776Z,15.48
2022-12-23T01:26:43.650Z,15.77
2022-12-23T01:27:46.571Z,18.25
2022-12-23T01:28:48.445Z,16.55
2022-12-23T01:29:51.277Z,19.08
2022-12-23T01:30:53.274Z,18.02
2022-12-23T01:31:57.468Z,18.02
2022-12-23T01:32:59.763Z,19.60
2022-12-23T01:34:02.624Z,17.20
2022-12-23T01:35:05.243Z,18.05
2022-12-23T01:36:09.265Z,18.80
2022-12-23T01:37:12.147Z,19.13
2022-12-23T01:38:14.437Z,18.33
2022-12-23T01:39:17.733Z,19.35
2022-12-23T01:40:20.086Z,18.63
2022-12-23T01:41:38.567Z,19.98
2022-12-23T01:42:47.752Z,19.50
2022-12-23T01:43:51.978Z,18.70
2022-12-23T01:44:58.207Z,20.33
2022-12-23T01:46:01.107Z,20.58
2022-12-23T01:47:05.218Z,22.30
2022-12-23T01:48:10.894Z,21.73
2022-12-23T01:49:12.685Z,20.98
2022-12-23T01:50:18.537Z,22.77
2022-12-23T01:51:24.002Z,22.35
2022-12-23T01:52:27.119Z,20.77
2022-12-23T01:53:32.221Z,21.95
2022-12-23T01:54:34.589Z,21.77
2022-12-23T01:55:41.469Z,22.27
2022-12-23T01:56:44.067Z,19.23
2022-12-23T01:57:47.877Z,20.40
2022-12-23T01:58:52.145Z,20.08
2022-12-23T02:00:21.592Z,20.35
2022-12-23T02:01:42.659Z,21.60
2022-12-23T02:03:11.260Z,19.20
2022-12-23T02:04:18.346Z,20.45
2022-12-23T02:05:21.468Z,20.00
2022-12-23T02:06:53.485Z,18.77
2022-12-23T02:08:14.400Z,23.65
2022-12-23T02:09:19.339Z,19.33
2022-12-23T02:10:24.299Z,20.02
2022-12-23T02:11:39.159Z,19.15
2022-12-23T02:12:49.373Z,19.92
2022-12-23T02:14:12.883Z,19.38
2022-12-23T02:15:42.700Z,19.70
2022-12-23T02:16:49.958Z,19.67
2022-12-23T02:18:00.697Z,21.85
2022-12-23T02:19:11.960Z,18.90
2022-12-23T02:20:56.140Z,19.52
2022-12-23T02:22:14.252Z,16.95
2022-12-23T02:23:38.959Z,20.25
2022-12-23T02:25:13.824Z,18.65
2022-12-23T02:26:30.837Z,20.05
2022-12-23T02:28:03.330Z,20.33
2022-12-23T02:29:21.811Z,21.63
2022-12-23T02:30:38.630Z,21.30
2022-12-23T02:31:47.183Z,20.88
2022-12-23T02:32:59.991Z,19.10
2022-12-23T02:34:10.420Z,20.42
2022-12-23T02:35:14.933Z,19.50
2022-12-23T02:36:27.954Z,20.38
2022-12-23T02:37:36.852Z,20.30
2022-12-23T02:38:45.753Z,21.50
2022-12-23T02:39:52.834Z,20.02
2022-12-23T02:41:06.431Z,20.45
2022-12-23T02:42:12.336Z,18.52
2022-12-23T02:43:17.775Z,20.30
2022-12-23T02:44:29.375Z,20.98
2022-12-23T02:45:36.978Z,21.02
2022-12-23T02:46:44.595Z,20.92
2022-12-23T02:47:50.229Z,21.15
2022-12-23T02:48:55.591Z,20.17
2022-12-23T02:50:00.231Z,21.58
2022-12-23T02:51:03.723Z,21.35
2022-12-23T02:52:09.339Z,20.17
2022-12-23T02:53:16.377Z,21.08
2022-12-23T02:54:20.855Z,21.98
2022-12-23T02:55:28.749Z,21.52
2022-12-23T02:56:32.499Z,21.02
2022-12-23T02:57:37.100Z,22.90
2022-12-23T02:58:44.580Z,22.55
2022-12-23T02:59:49.491Z,20.33
2022-12-23T03:00:53.579Z,21.50
2022-12-23T03:01:57.155Z,21.67
2022-12-23T03:02:59.406Z,20.70
2022-12-23T03:04:02.316Z,19.33
2022-12-23T03:05:05.057Z,19.90
2022-12-23T03:06:17.088Z,18.23
2022-12-23T03:07:21.288Z,18.75
2022-12-23T03:08:26.988Z,17.77
2022-12-23T03:09:36.346Z,19.00
2022-12-23T03:10:47.423Z,19.00
2022-12-23T03:11:55.752Z,19.15
2022-12-23T03:13:04.357Z,19.67
2022-12-23T03:14:36.862Z,19.17
2022-12-23T03:15:43.542Z,17.58
2022-12-23T03:16:52.597Z,18.25
2022-12-23T03:18:02.098Z,16.58
2022-12-23T03:19:11.631Z,18.38
2022-12-23T03:20:19.215Z,18.35
2022-12-23T03:21:27.844Z,18.75
2022-12-23T03:22:32.952Z,17.38
2022-12-23T03:23:39.719Z,16.00
2022-12-23T03:24:47.345Z,16.58
2022-12-23T03:25:57.035Z,15.48
2022-12-23T03:27:04.864Z,14.38
2022-12-23T03:28:18.131Z,14.52
2022-12-23T03:29:24.405Z,15.70
2022-12-23T03:30:28.291Z,14.70
2022-12-23T03:31:31.746Z,14.52
2022-12-23T03:32:39.146Z,14.48
2022-12-23T03:33:42.884Z,15.88
2022-12-23T03:34:48.941Z,16.02
2022-12-23T03:35:54.285Z,15.45
2022-12-23T03:36:58.764Z,14.13
2022-12-23T03:38:02.981Z,14.55
2022-12-23T03:39:08.368Z,15.82
2022-12-23T03:40:13.591Z,13.50
2022-12-23T03:41:20.305Z,15.38
2022-12-23T03:42:26.134Z,14.40
2022-12-23T03:43:31.878Z,14.52
2022-12-23T03:44:37.268Z,14.65
2022-12-23T03:45:42.776Z,14.88
2022-12-23T03:46:48.898Z,14.63
2022-12-23T03:47:55.977Z,14.48
2022-12-23T03:49:01.221Z,14.80
2022-12-23T03:50:07.420Z,13.32
2022-12-23T03:51:13.048Z,13.25
2022-12-23T03:52:21.514Z,13.57
2022-12-23T03:53:27.336Z,15.20
2022-12-23T03:54:33.440Z,14.50
2022-12-23T03:55:41.365Z,14.90
2022-12-23T03:56:47.766Z,14.18
2022-12-23T03:57:56.113Z,13.40
2022-12-23T03:59:00.633Z,12.65
2022-12-23T04:00:02.520Z,12.75
2022-12-23T04:01:13.782Z,14.98
2022-12-23T04:02:20.577Z,14.52
2022-12-23T04:03:32.076Z,14.63
2022-12-23T04:04:44.830Z,14.60
2022-12-23T04:05:51.148Z,13.55
2022-12-23T04:06:56.843Z,12.27
2022-12-23T04:08:03.407Z,13.27
2022-12-23T04:09:07.493Z,13.80
2022-12-23T04:10:11.114Z,13.88
2022-12-23T04:11:13.082Z,13.10
2022-12-23T04:12:16.359Z,13.40
2022-12-23T04:13:18.137Z,13.90
2022-12-23T04:14:22.455Z,13.57
2022-12-23T04:15:26.242Z,15.10
2022-12-23T04:16:30.174Z,14.90
2022-12-23T04:17:32.683Z,15.02
2022-12-23T04:18:36.877Z,16.38
2022-12-23T04:19:38.732Z,14.98
2022-12-23T04:20:41.503Z,15.10
2022-12-23T04:21:43.823Z,15.95
2022-12-23T04:22:46.835Z,14.60
2022-12-23T04:23:48.600Z,15.45
2022-12-23T04:24:51.735Z,13.65
2022-12-23T04:25:53.533Z,16.10
2022-12-23T04:26:56.403Z,17.02
2022-12-23T04:27:58.195Z,15.10
2022-12-23T04:29:00.956Z,17.42
2022-12-23T04:30:03.083Z,16.58
2022-12-23T04:31:06.015Z,16.30
2022-12-23T04:32:08.310Z,15.85
2022-12-23T04:33:11.501Z,14.93
2022-12-23T04:34:15.026Z,15.25
2022-12-23T04:35:17.854Z,14.55
2022-12-23T04:36:20.592Z,16.20
2022-12-23T04:37:22.964Z,15.45
2022-12-23T04:38:25.733Z,15.57
2022-12-23T04:39:27.522Z,13.65
2022-12-23T04:40:30.687Z,13.65
2022-12-23T04:41:33.421Z,14.25
2022-12-23T04:42:35.509Z,14.82
2022-12-23T04:43:38.458Z,15.35
2022-12-23T04:44:40.294Z,15.70
2022-12-23T04:45:43.085Z,15.07
2022-12-23T04:46:45.044Z,16.13
2022-12-23T04:47:48.103Z,15.52
2022-12-23T04:48:49.943Z,17.75
2022-12-23T04:49:54.422Z,19.23
2022-12-23T04:50:56.203Z,17.23
2022-12-23T04:51:59.467Z,17.85
2022-12-23T04:53:01.475Z,16.65
2022-12-23T04:54:04.454Z,17.83
2022-12-23T04:55:07.249Z,18.92
2022-12-23T04:56:10.006Z,18.33
2022-12-23T04:57:11.761Z,20.73
2022-12-23T04:58:14.603Z,19.80
2022-12-23T04:59:16.624Z,19.25
2022-12-23T05:00:20.024Z,20.80
2022-12-23T05:01:21.836Z,21.58
2022-12-23T05:02:24.781Z,23.95
2022-12-23T05:03:26.655Z,23.90
2022-12-23T05:04:29.702Z,26.73
2022-12-23T05:05:52.515Z,32.08
2022-12-23T05:06:54.324Z,87.95
2022-12-23T05:08:03.803Z,51.45
2022-12-23T05:09:06.199Z,39.08
2022-12-23T05:10:10.132Z,38.33
2022-12-23T05:11:11.901Z,44.30
2022-12-23T05:12:14.723Z,25.38
2022-12-23T05:13:16.666Z,42.47
2022-12-23T05:14:19.524Z,29.38
2022-12-23T05:15:21.398Z,27.45
2022-12-23T05:16:24.226Z,32.25
2022-12-23T05:17:26.033Z,28.83
2022-12-23T05:18:28.857Z,25.20
2022-12-23T05:19:30.721Z,26.33
2022-12-23T05:20:33.454Z,26.80
2022-12-23T05:21:36.702Z,30.27
2022-12-23T05:22:39.458Z,31.85
2022-12-23T05:23:41.218Z,31.10
2022-12-23T05:24:44.139Z,26.95
2022-12-23T05:25:50.769Z,23.52
2022-12-23T05:26:59.760Z,27.48
2022-12-23T05:28:02.108Z,31.85
2022-12-23T05:29:05.580Z,38.72
2022-12-23T05:30:08.697Z,49.40
2022-12-23T05:31:12.939Z,33.08
2022-12-23T05:32:14.733Z,33.63
2022-12-23T05:33:17.534Z,33.70
2022-12-23T05:34:19.645Z,36.33
2022-12-23T05:35:22.579Z,36.63
2022-12-23T05:36:25.433Z,34.13
2022-12-23T05:37:28.994Z,49.10
2022-12-23T05:38:32.344Z,39.42
2022-12-23T05:39:34.143Z,80.03
2022-12-23T05:40:37.297Z,78.32
2022-12-23T05:41:39.326Z,58.42
2022-12-23T05:42:42.237Z,77.40
2022-12-23T05:43:44.296Z,73.18
2022-12-23T05:44:47.122Z,77.63
2022-12-23T05:45:49.670Z,83.13
2022-12-23T05:46:52.555Z,100.00
2022-12-23T05:47:54.294Z,87.93
2022-12-23T05:48:57.101Z,45.90
2022-12-23T05:49:59.163Z,41.97
2022-12-23T05:51:01.945Z,60.40
2022-12-23T05:52:03.888Z,63.50
2022-12-23T05:53:08.828Z,60.45
2022-12-23T05:54:11.793Z,70.80
2022-12-23T05:55:13.613Z,67.50
2022-12-23T05:56:16.505Z,54.05
2022-12-23T05:57:18.319Z,68.10
2022-12-23T05:58:21.078Z,52.10
2022-12-23T05:59:27.653Z,48.97
2022-12-23T06:00:33.691Z,51.42
2022-12-23T06:01:35.581Z,48.42
2022-12-23T06:02:38.841Z,52.90
2022-12-23T06:03:40.888Z,55.97
2022-12-23T06:04:43.711Z,53.47
2022-12-23T06:05:50.457Z,54.63
2022-12-23T06:06:53.213Z,58.88
2022-12-23T06:07:54.975Z,59.20
2022-12-23T06:09:00.324Z,44.80
2022-12-23T06:10:02.620Z,40.70
2022-12-23T06:11:06.203Z,59.92
2022-12-23T06:12:08.306Z,39.03
2022-12-23T06:13:11.288Z,42.83
2022-12-23T06:14:14.247Z,50.55
2022-12-23T06:15:16.477Z,54.28
2022-12-23T06:16:19.681Z,44.53
2022-12-23T06:17:21.657Z,48.28
2022-12-23T06:18:24.885Z,43.90
2022-12-23T06:19:26.935Z,36.50
2022-12-23T06:20:29.772Z,37.42
2022-12-23T06:21:32.122Z,37.50
2022-12-23T06:22:34.995Z,37.05
2022-12-23T06:23:36.856Z,38.97
2022-12-23T06:24:41.340Z,44.75
2022-12-23T06:25:44.093Z,43.40
2022-12-23T06:26:46.255Z,44.60
2022-12-23T06:27:49.512Z,39.17
2022-12-23T06:28:51.393Z,35.00
2022-12-23T06:29:54.218Z,41.08
2022-12-23T06:30:57.852Z,41.50
2022-12-23T06:31:59.858Z,38.97
2022-12-23T06:33:02.899Z,44.08
2022-12-23T06:34:04.800Z,46.67
2022-12-23T06:35:08.155Z,33.05
2022-12-23T06:36:10.242Z,24.67
2022-12-23T06:37:13.179Z,21.08
2022-12-23T06:38:16.140Z,20.30
2022-12-23T06:39:18.008Z,22.98
2022-12-23T06:40:22.590Z,31.50
2022-12-23T06:41:24.460Z,25.88
2022-12-23T06:42:27.561Z,30.05
2022-12-23T06:43:29.926Z,29.80
2022-12-23T06:44:32.765Z,28.85
2022-12-23T06:45:35.095Z,20.27
2022-12-23T06:46:38.394Z,21.38
2022-12-23T06:47:41.312Z,21.50
2022-12-23T06:48:43.139Z,20.55
2022-12-23T06:49:46.111Z,22.17
2022-12-23T06:50:49.348Z,24.38
2022-12-23T06:51:51.201Z,27.45
2022-12-23T06:52:54.416Z,20.95
2022-12-23T06:53:56.217Z,21.60
2022-12-23T06:54:59.065Z,23.83
2022-12-23T06:56:04.122Z,24.08
2022-12-23T07:00:25.657Z,22.33
2022-12-23T07:01:27.845Z,20.83
2022-12-23T07:02:30.981Z,25.92
2022-12-23T07:03:32.898Z,27.27
2022-12-23T07:04:36.109Z,26.60
2022-12-23T07:05:38.055Z,27.30
2022-12-23T07:06:40.943Z,29.35
2022-12-23T07:07:42.773Z,28.65
2022-12-23T07:08:45.596Z,29.33
2022-12-23T07:09:47.515Z,26.15
2022-12-23T07:10:50.851Z,27.23
2022-12-23T07:11:55.049Z,26.20
2022-12-23T07:12:56.899Z,29.45
2022-12-23T07:14:00.395Z,30.65
2022-12-23T07:15:03.201Z,29.67
2022-12-23T07:16:06.567Z,30.20
2022-12-23T07:17:09.807Z,31.50
2022-12-23T07:18:12.659Z,31.08
2022-12-23T07:19:14.596Z,31.92
2022-12-23T07:20:17.790Z,31.95
2022-12-23T07:21:26.699Z,36.13
2022-12-23T07:22:32.134Z,35.42
2022-12-23T07:23:34.049Z,36.60
2022-12-23T07:24:37.289Z,39.47
2022-12-23T07:25:39.168Z,41.53
2022-12-23T07:26:42.047Z,45.65
2022-12-23T07:27:46.463Z,40.55
2022-12-23T07:28:48.897Z,38.47
2022-12-23T07:29:51.897Z,42.33
2022-12-23T07:30:53.713Z,53.40
2022-12-23T07:31:56.537Z,45.65
2022-12-23T07:32:59.420Z,38.80
2022-12-23T07:34:02.335Z,39.75
2022-12-23T07:35:04.807Z,51.20
2022-12-23T07:36:08.307Z,52.42
2022-12-23T07:37:10.185Z,40.63
2022-12-23T07:38:13.281Z,48.00
2022-12-23T07:39:15.499Z,53.17
2022-12-23T07:40:18.625Z,55.90
2022-12-23T07:41:20.490Z,61.13
2022-12-23T07:43:47.249Z,37.92
2022-12-23T07:44:50.055Z,32.92
2022-12-23T07:45:59.607Z,61.88
2022-12-23T07:47:02.033Z,61.35
2022-12-23T07:48:04.902Z,78.75
2022-12-23T07:49:08.091Z,59.58
2022-12-23T07:50:10.396Z,82.88
2022-12-23T07:51:13.314Z,58.45
2022-12-23T07:52:15.533Z,65.72
2022-12-23T07:53:18.422Z,60.92
2022-12-23T07:54:20.343Z,41.50
2022-12-23T07:55:23.668Z,64.22
2022-12-23T07:56:25.515Z,57.13
2022-12-23T07:57:29.285Z,63.92
2022-12-23T07:58:31.681Z,53.47
2022-12-23T07:59:36.328Z,56.70
2022-12-23T08:00:38.410Z,49.13
2022-12-23T08:01:41.363Z,67.60
2022-12-23T08:02:43.569Z,64.05
2022-12-23T08:03:46.853Z,66.82
2022-12-23T08:04:48.939Z,64.20
2022-12-23T08:06:00.215Z,57.03
2022-12-23T08:07:03.068Z,55.92
2022-12-23T08:08:05.149Z,62.90
2022-12-23T08:09:09.369Z,63.33
2022-12-23T08:10:12.239Z,35.95
2022-12-23T08:11:15.861Z,33.90
2022-12-23T08:12:17.703Z,26.77
2022-12-23T08:13:20.509Z,27.30
2022-12-23T08:14:23.255Z,28.02
2022-12-23T08:15:27.433Z,27.63
2022-12-23T08:16:29.311Z,30.90
2022-12-23T08:17:32.906Z,29.67
2022-12-23T08:18:36.668Z,29.83
2022-12-23T08:19:39.421Z,27.42
2022-12-23T08:20:41.298Z,26.92
2022-12-23T08:21:44.062Z,26.52
2022-12-23T08:22:46.054Z,24.40
2022-12-23T08:23:49.175Z,23.83
2022-12-23T08:24:52.558Z,24.45
2022-12-23T08:26:02.732Z,24.48
2022-12-23T08:27:04.616Z,23.40
2022-12-23T08:28:07.612Z,22.20
2022-12-23T08:29:09.409Z,23.42
2022-12-23T08:30:13.641Z,22.42
2022-12-23T08:31:18.991Z,22.85
2022-12-23T08:32:21.944Z,22.60
2022-12-23T08:33:24.931Z,22.20
2022-12-23T08:34:27.818Z,22.40
2022-12-23T08:35:30.258Z,24.05
2022-12-23T08:36:34.426Z,22.58
2022-12-23T08:37:36.342Z,22.75
2022-12-23T08:38:39.329Z,23.10
2022-12-23T08:39:41.343Z,22.20
2022-12-23T08:40:44.505Z,22.15
2022-12-23T08:41:48.068Z,21.00
2022-12-23T08:42:51.879Z,20.33
2022-12-23T08:43:54.034Z,21.85
2022-12-23T08:44:56.883Z,20.85
2022-12-23T08:45:58.833Z,21.52
2022-12-23T08:47:03.059Z,21.80
2022-12-23T08:48:06.150Z,21.58
2022-12-23T08:49:09.792Z,20.65
2022-12-23T08:50:12.767Z,22.20
2022-12-23T08:51:17.390Z,20.67
2022-12-23T08:52:20.748Z,22.30
2022-12-23T08:53:22.628Z,21.90
2022-12-23T08:54:25.432Z,22.70
2022-12-23T08:55:27.696Z,20.90
2022-12-23T08:56:32.433Z,22.77
2022-12-23T08:57:34.441Z,22.40
2022-12-23T08:58:38.076Z,23.98
2022-12-23T08:59:40.881Z,22.50
2022-12-23T09:00:42.737Z,21.73
2022-12-23T09:01:45.768Z,22.95
2022-12-23T09:02:49.085Z,23.08
2022-12-23T09:03:52.378Z,23.42
2022-12-23T09:04:55.670Z,22.13
2022-12-23T09:05:57.502Z,21.42
2022-12-23T09:07:00.688Z,20.92
2022-12-23T09:08:03.020Z,20.85
2022-12-23T09:09:06.697Z,19.58
2022-12-23T09:10:09.865Z,19.05
2022-12-23T09:11:14.131Z,17.45
2022-12-23T09:12:16.047Z,17.42
2022-12-23T09:13:27.878Z,17.80
2022-12-23T09:14:35.920Z,17.45
2022-12-23T09:15:41.174Z,17.75
2022-12-23T09:16:43.978Z,17.90
2022-12-23T09:17:45.915Z,16.90
2022-12-23T09:18:50.061Z,18.85
2022-12-23T09:19:53.210Z,16.67
2022-12-23T09:20:58.903Z,18.33
2022-12-23T09:22:01.624Z,17.92
2022-12-23T09:23:05.271Z,17.30
2022-12-23T09:24:08.461Z,17.33
2022-12-23T09:25:10.936Z,18.33
2022-12-23T09:26:19.780Z,18.00
2022-12-23T09:27:22.687Z,18.70
2022-12-23T09:28:24.744Z,18.45
2022-12-23T09:29:27.566Z,16.73
2022-12-23T09:30:29.484Z,16.63
2022-12-23T09:31:37.399Z,15.95
2022-12-23T09:32:39.814Z,16.48
2022-12-23T09:33:42.814Z,17.83
2022-12-23T09:34:47.023Z,17.70
2022-12-23T09:35:51.734Z,16.63
2022-12-23T09:36:55.612Z,16.20
2022-12-23T09:37:57.512Z,16.35
2022-12-23T09:39:00.327Z,17.00
2022-12-23T09:40:03.097Z,16.67
2022-12-23T09:41:13.360Z,15.82
2022-12-23T09:42:35.898Z,15.48
2022-12-23T09:43:43.757Z,14.88
2022-12-23T09:45:05.297Z,14.10
2022-12-23T09:46:18.927Z,13.98
2022-12-23T09:47:23.049Z,13.98
2022-12-23T09:48:27.200Z,14.52
2022-12-23T09:49:28.988Z,14.02
2022-12-23T09:50:34.682Z,14.38
2022-12-23T09:51:36.746Z,13.00
2022-12-23T09:52:48.891Z,12.63
2022-12-23T09:53:57.310Z,14.00
2022-12-23T09:54:59.276Z,12.95
2022-12-23T09:56:07.264Z,12.90
2022-12-23T09:57:18.139Z,13.45
2022-12-23T09:58:27.651Z,13.52
2022-12-23T09:59:49.546Z,14.10
2022-12-23T10:01:02.036Z,14.60
2022-12-23T10:02:14.347Z,13.68
2022-12-23T10:03:20.949Z,13.20
2022-12-23T10:04:47.590Z,13.48
2022-12-23T10:05:59.571Z,13.95
2022-12-23T10:07:14.100Z,13.43
2022-12-23T10:08:19.494Z,13.10
2022-12-23T10:09:22.329Z,14.55
2022-12-23T10:10:35.668Z,13.27
2022-12-23T10:11:41.549Z,12.40
2022-12-23T10:12:47.753Z,13.68
2022-12-23T10:13:52.260Z,13.43
2022-12-23T10:14:55.988Z,13.95
2022-12-23T10:16:03.337Z,14.05
2022-12-23T10:17:08.731Z,13.45
2022-12-23T10:18:17.877Z,14.48
2022-12-23T10:19:23.937Z,13.02
2022-12-23T10:20:33.684Z,14.75
2022-12-23T10:21:46.901Z,14.77
2022-12-23T10:22:49.745Z,15.23
2022-12-23T10:23:54.916Z,14.98
2022-12-23T10:24:57.946Z,15.07
2022-12-23T10:26:01.655Z,13.63
2022-12-23T10:27:06.411Z,14.73
2022-12-23T10:28:10.813Z,13.52
2022-12-23T10:29:19.431Z,13.13
2022-12-23T10:31:53.764Z,13.05
2022-12-23T10:32:59.615Z,13.55
2022-12-23T10:34:06.984Z,13.48
2022-12-23T10:35:17.558Z,14.15
2022-12-23T10:36:23.828Z,13.10
2022-12-23T10:37:34.565Z,13.32
2022-12-23T10:38:43.559Z,13.13
2022-12-23T10:39:55.912Z,13.30
2022-12-23T10:41:07.065Z,12.80
2022-12-23T10:42:19.071Z,13.02
2022-12-23T10:43:27.287Z,12.50
2022-12-23T10:44:56.279Z,14.98
2022-12-23T10:46:02.943Z,13.57
2022-12-23T10:47:13.771Z,13.73
2022-12-23T10:48:25.593Z,15.02
2022-12-23T10:49:34.418Z,15.63
2022-12-23T10:50:51.197Z,15.38
2022-12-23T10:51:58.631Z,15.82
2022-12-23T10:53:04.693Z,12.70
2022-12-23T10:54:10.809Z,13.43
2022-12-23T10:55:33.206Z,11.73
2022-12-23T10:56:37.206Z,12.13
2022-12-23T10:57:40.209Z,11.45
2022-12-23T10:58:45.160Z,12.88
2022-12-23T10:59:48.127Z,11.52
2022-12-23T11:00:55.030Z,10.05
2022-12-23T11:02:02.584Z,9.23
2022-12-23T11:03:10.721Z,10.57
2022-12-23T11:04:16.170Z,9.38
2022-12-23T11:05:22.678Z,10.35
2022-12-23T11:06:31.496Z,10.27
2022-12-23T11:07:45.495Z,10.70
2022-12-23T11:08:51.258Z,9.77
2022-12-23T11:09:55.654Z,8.15
2022-12-23T11:11:00.354Z,9.13
2022-12-23T11:12:05.043Z,8.85
2022-12-23T11:13:07.097Z,10.07
2022-12-23T11:14:30.570Z,10.32
2022-12-23T11:15:34.267Z,10.55
2022-12-23T11:16:46.480Z,9.70
2022-12-23T11:17:58.772Z,10.13
2022-12-23T11:19:03.748Z,9.15
2022-12-23T11:20:12.493Z,8.75
2022-12-23T11:21:15.587Z,9.68
2022-12-23T11:22:23.937Z,8.70
2022-12-23T11:23:28.442Z,7.38
2022-12-23T11:24:37.974Z,8.38
2022-12-23T11:25:43.717Z,8.60
2022-12-23T11:26:48.896Z,7.68
2022-12-23T11:27:51.951Z,8.73
2022-12-23T11:29:06.505Z,8.32
2022-12-23T11:30:18.632Z,7.75
2022-12-23T11:31:27.985Z,8.05
2022-12-23T11:32:29.897Z,8.48
2022-12-23T11:33:34.040Z,8.02
2022-12-23T11:34:37.640Z,7.07
2022-12-23T11:35:40.537Z,7.72
2022-12-23T11:37:07.278Z,6.85
2022-12-23T11:38:13.609Z,7.30
2022-12-23T11:39:20.188Z,8.48
2022-12-23T11:40:27.043Z,7.45
2022-12-23T11:41:34.175Z,7.60
2022-12-23T11:42:37.049Z,7.55
2022-12-23T11:43:39.322Z,7.70
2022-12-23T11:44:44.361Z,7.15
2022-12-23T11:45:47.129Z,8.40
2022-12-23T11:46:49.394Z,9.20
2022-12-23T11:47:53.091Z,8.40
2022-12-23T11:49:16.770Z,9.48
2022-12-23T11:50:29.446Z,7.53
2022-12-23T11:51:31.656Z,7.65
2022-12-23T11:52:35.049Z,8.20
2022-12-23T11:53:36.943Z,7.97
2022-12-23T11:54:40.006Z,7.93
2022-12-23T11:55:49.546Z,9.23
2022-12-23T11:56:53.321Z,7.43
2022-12-23T11:57:56.245Z,7.50
2022-12-23T11:59:04.021Z,8.32
2022-12-23T12:00:07.981Z,7.32
2022-12-23T12:01:18.097Z,7.22
2022-12-23T12:02:22.042Z,7.68
2022-12-23T12:03:28.443Z,6.88
2022-12-23T12:04:32.935Z,6.28
2022-12-23T12:05:38.535Z,6.78
2022-12-23T12:06:44.196Z,6.80
2022-12-23T12:07:47.307Z,6.47
2022-12-23T12:08:51.753Z,6.70
2022-12-23T12:09:58.025Z,5.85
2022-12-23T12:11:08.959Z,6.28
2022-12-23T12:12:14.963Z,6.97
2022-12-23T12:13:23.439Z,7.53
2022-12-23T12:14:32.259Z,7.03
2022-12-23T12:15:38.515Z,7.50
2022-12-23T12:16:52.042Z,7.70
2022-12-23T12:17:56.225Z,7.60
2022-12-23T12:19:02.155Z,7.32
2022-12-23T12:20:10.299Z,8.25
2022-12-23T12:21:15.889Z,7.57
2022-12-23T12:22:24.186Z,7.43
2022-12-23T12:23:28.909Z,7.90
2022-12-23T12:24:34.238Z,7.55
2022-12-23T12:25:39.999Z,7.63
2022-12-23T12:26:46.990Z,7.47
2022-12-23T12:27:54.805Z,7.80
2022-12-23T12:28:59.540Z,8.85
2022-12-23T12:30:08.751Z,6.78
2022-12-23T12:31:17.474Z,7.60
2022-12-23T12:32:24.213Z,7.32
2022-12-23T12:33:31.248Z,6.25
2022-12-23T12:34:40.109Z,7.30
2022-12-23T12:35:45.366Z,6.53
2022-12-23T12:36:51.895Z,6.85
2022-12-23T12:37:58.841Z,5.93
2022-12-23T12:39:00.660Z,7.00
2022-12-23T12:40:13.438Z,6.82
2022-12-23T12:41:18.496Z,5.03
2022-12-23T12:42:27.552Z,6.13
2022-12-23T12:43:31.877Z,6.82
2022-12-23T12:44:38.714Z,5.72
2022-12-23T12:45:46.867Z,4.90
2022-12-23T12:46:52.537Z,6.13
2022-12-23T12:48:17.816Z,5.97
2022-12-23T12:49:24.013Z,6.28
2022-12-23T12:50:29.235Z,5.20
2022-12-23T12:51:36.871Z,6.25
2022-12-23T12:52:40.597Z,6.35
2022-12-23T12:53:54.748Z,7.38
2022-12-23T12:55:00.619Z,7.07
2022-12-23T12:56:08.117Z,6.72
2022-12-23T12:57:15.427Z,7.25
2022-12-23T12:58:21.331Z,7.72
2022-12-23T12:59:27.668Z,7.45
2022-12-23T13:00:30.618Z,6.78
2022-12-23T13:01:43.907Z,7.32
2022-12-23T13:03:05.306Z,7.20
2022-12-23T13:04:46.887Z,7.22
2022-12-23T13:05:58.942Z,8.48
2022-12-23T13:07:05.686Z,8.18
2022-12-23T13:08:19.556Z,7.78
2022-12-23T13:09:27.669Z,7.22
2022-12-23T13:10:38.445Z,7.47
2022-12-23T13:11:45.267Z,7.18
2022-12-23T13:12:55.510Z,7.45
2022-12-23T13:14:04.218Z,7.63
2022-12-23T13:15:14.533Z,8.13
2022-12-23T13:16:24.507Z,7.72
2022-12-23T13:17:30.785Z,6.90
2022-12-23T13:18:39.810Z,7.32
2022-12-23T13:19:46.737Z,7.50
2022-12-23T13:20:52.606Z,7.43
2022-12-23T13:22:00.487Z,6.88
2022-12-23T13:23:34.331Z,6.45
2022-12-23T13:24:35.456Z,8.15
2022-12-23T13:25:42.111Z,8.00
2022-12-23T13:26:57.156Z,9.55
2022-12-23T13:28:07.223Z,8.48
2022-12-23T13:29:30.725Z,8.32
2022-12-23T13:30:40.486Z,7.65
2022-12-23T13:31:48.947Z,8.38
2022-12-23T13:33:06.791Z,7.55
2022-12-23T13:34:19.431Z,10.63
2022-12-23T13:35:33.549Z,7.80
2022-12-23T13:36:44.953Z,12.80
2022-12-23T13:37:54.708Z,7.80
2022-12-23T13:39:05.032Z,7.80
2022-12-23T13:40:17.239Z,13.25
2022-12-23T13:41:25.171Z,10.35
2022-12-23T13:42:31.872Z,10.98
2022-12-23T13:43:42.658Z,8.52
2022-12-23T13:44:46.198Z,11.80
2022-12-23T13:45:50.165Z,8.80
2022-12-23T13:46:57.678Z,8.02
2022-12-23T13:48:12.359Z,7.82
2022-12-23T13:49:19.907Z,9.55
2022-12-23T13:50:26.772Z,9.50
2022-12-23T13:51:34.507Z,11.90
2022-12-23T13:52:51.187Z,8.25
2022-12-23T13:54:02.425Z,7.13
2022-12-23T13:55:14.841Z,8.07
2022-12-23T13:56:24.182Z,9.70
2022-12-23T13:57:41.881Z,8.07
2022-12-23T13:58:49.125Z,8.02
2022-12-23T14:00:05.296Z,7.97
2022-12-23T14:01:31.311Z,8.05
2022-12-23T14:02:42.079Z,8.07
2022-12-23T14:03:45.563Z,11.02
2022-12-23T14:05:01.014Z,9.65
2022-12-23T14:06:22.797Z,9.32
2022-12-23T14:07:24.617Z,12.40
2022-12-23T14:08:32.943Z,10.55
2022-12-23T14:09:36.510Z,9.18
2022-12-23T14:10:39.757Z,7.75
2022-12-23T14:11:43.280Z,8.07
2022-12-23T14:12:47.783Z,7.72
2022-12-23T14:13:56.354Z,10.45
2022-12-23T14:15:49.302Z,9.82
2022-12-23T14:17:01.376Z,9.30
2022-12-23T14:18:16.839Z,9.50
2022-12-23T14:19:35.639Z,8.93
2022-12-23T14:20:47.636Z,8.60
2022-12-23T14:21:59.285Z,8.40
2022-12-23T14:23:11.089Z,7.30
2022-12-23T14:24:35.399Z,9.38
2022-12-23T14:25:58.868Z,7.43